Andice, Texas
Current Conditions -  °F | °C
As of 2:49 PM on Saturday 20 Dec 2014 (Local Time) from KGTU Reporting Station
Overcast Overcast  
Wind Chill: 12°   Ceiling: 2200
Heat Index: 12°   Visibility: 10mi
Dew Point:   Wind: 6mph
Humidity: 72%   Direction: 350°N
Pressure: 30.15"   Gusts: NA
Location:  30.6575°N, 97.7523°W
Report Text: KGTU 202049Z 35005KT 10SM OVC022 12/07 A3015
Loading
Personal Weather Stations






























Interactive Weather Map New forecast layout! Learn more

10-Day Weather Forecast

Advertisements
Track Severe Weather on mobile